Time;durP1;ratioP1;P1;durP2;ratioP2;P2;SDS_P1;SDS_P2;PMS_P1;PMS_P2;Temp;Humidity;BMP_temperature;BMP_pressure;BME280_temperature;BME280_humidity;BME280_pressure;Samples;Min_cycle;Max_cycle;Signal;HPM_P1;HPM_P2
2022/08/08 00:00:12;;;;;;;1.80;1.63;;;23.00;48.20;;;;;;4923392;29;20039;-85
2022/08/08 00:02:56;;;;;;;2.22;1.70;;;23.00;48.20;;;;;;4939317;29;20023;-86
2022/08/08 00:05:37;;;;;;;1.92;1.50;;;23.00;48.20;;;;;;4956572;29;20039;-86
2022/08/08 00:08:02;;;;;;;1.75;1.63;;;22.90;48.30;;;;;;4939491;29;20379;-86
2022/08/08 00:10:48;;;;;;;1.65;1.30;;;22.90;48.30;;;;;;4938651;29;20036;-86
2022/08/08 00:13:42;;;;;;;2.13;1.60;;;22.90;48.50;;;;;;4939258;29;20053;-85
2022/08/08 00:16:33;;;;;;;1.60;1.50;;;22.80;48.50;;;;;;4938357;28;20047;-85
2022/08/08 00:19:13;;;;;;;1.75;1.48;;;22.80;48.50;;;;;;4926654;29;20136;-85
2022/08/08 00:21:58;;;;;;;2.05;1.40;;;22.80;48.50;;;;;;4942356;29;20035;-84
2022/08/08 00:24:39;;;;;;;1.80;1.52;;;22.80;48.50;;;;;;4944152;29;20098;-86
2022/08/08 00:27:09;;;;;;;1.92;1.48;;;22.80;48.60;;;;;;4951826;29;20035;-84
2022/08/08 00:29:52;;;;;;;2.13;1.80;;;22.70;48.60;;;;;;4966673;29;20058;-86
2022/08/08 00:32:47;;;;;;;1.63;1.40;;;22.70;48.70;;;;;;4947150;29;20490;-85
2022/08/08 00:35:39;;;;;;;1.48;1.38;;;22.60;48.70;;;;;;4927653;29;20050;-85
2022/08/08 00:38:11;;;;;;;2.17;1.52;;;22.60;48.90;;;;;;4943472;29;20034;-85
2022/08/08 00:40:37;;;;;;;2.53;1.55;;;22.60;48.80;;;;;;4942177;29;20035;-85
2022/08/08 00:43:25;;;;;;;1.63;1.45;;;22.60;48.90;;;;;;4942068;29;20062;-85
2022/08/08 00:46:10;;;;;;;2.15;1.70;;;22.50;48.90;;;;;;4959022;29;20039;-85
2022/08/08 00:49:08;;;;;;;1.92;1.60;;;22.50;48.90;;;;;;4958609;29;20023;-85
2022/08/08 00:52:11;;;;;;;1.52;1.40;;;22.50;49.10;;;;;;4921766;29;20429;-85
2022/08/08 00:55:16;;;;;;;1.45;1.30;;;22.40;49.10;;;;;;4941809;29;20031;-86
2022/08/08 00:58:11;;;;;;;1.48;1.38;;;22.40;49.80;;;;;;4942285;29;20035;-85
2022/08/08 01:01:06;;;;;;;2.35;1.45;;;22.40;49.20;;;;;;4941689;29;20035;-85
2022/08/08 01:03:56;;;;;;;2.30;1.52;;;22.30;49.20;;;;;;4911866;29;20082;-85
2022/08/08 01:06:27;;;;;;;2.08;1.50;;;22.30;49.20;;;;;;4941996;29;20473;-86
2022/08/08 01:09:06;;;;;;;2.30;1.48;;;22.30;49.20;;;;;;4925770;29;20039;-85
2022/08/08 01:11:46;;;;;;;1.80;1.45;;;22.30;50.00;;;;;;4941260;29;20031;-85
2022/08/08 01:15:00;;;;;;;1.90;1.40;;;22.20;49.40;;;;;;4941890;29;20028;-86
2022/08/08 01:17:53;;;;;;;1.38;1.25;;;22.20;49.40;;;;;;4920420;29;20113;-85
2022/08/08 01:20:41;;;;;;;1.65;1.40;;;22.20;49.50;;;;;;4958422;29;20035;-86
2022/08/08 01:23:38;;;;;;;3.00;1.58;;;22.10;49.50;;;;;;4926525;29;20094;-86
2022/08/08 01:26:51;;;;;;;2.17;1.60;;;22.10;49.60;;;;;;4927568;29;20043;-86
2022/08/08 01:30:03;;;;;;;2.30;1.52;;;22.10;49.60;;;;;;4885011;29;20044;-82
2022/08/08 01:33:04;;;;;;;1.83;1.25;;;22.00;49.60;;;;;;4885940;29;20040;-82
2022/08/08 01:35:54;;;;;;;1.63;1.25;;;22.00;49.60;;;;;;4913068;29;20046;-81
2022/08/08 01:38:54;;;;;;;1.40;1.30;;;22.00;49.70;;;;;;4940094;29;20530;-82
2022/08/08 01:41:30;;;;;;;1.50;1.40;;;21.90;49.70;;;;;;4939775;29;20031;-81
2022/08/08 01:44:18;;;;;;;1.52;1.30;;;21.90;49.70;;;;;;4940721;29;20031;-82
2022/08/08 01:47:03;;;;;;;1.48;1.38;;;21.90;49.80;;;;;;4947927;29;20051;-81
2022/08/08 01:49:56;;;;;;;1.42;1.33;;;21.80;49.80;;;;;;4948621;29;20023;-81
2022/08/08 01:52:24;;;;;;;2.05;1.58;;;21.80;49.90;;;;;;4958861;29;20027;-82
2022/08/08 01:55:13;;;;;;;1.50;1.40;;;21.80;49.80;;;;;;4939530;29;20027;-82
2022/08/08 01:58:03;;;;;;;1.50;1.40;;;21.80;50.00;;;;;;4939870;29;20038;-82
2022/08/08 02:00:54;;;;;;;1.88;1.30;;;21.70;50.10;;;;;;4925831;29;20050;-81
2022/08/08 02:03:41;;;;;;;1.50;1.23;;;21.70;50.00;;;;;;4929314;29;20039;-81
2022/08/08 02:06:29;;;;;;;1.98;1.40;;;21.70;50.00;;;;;;4944124;29;20043;-82
2022/08/08 02:09:22;;;;;;;1.40;1.30;;;21.70;50.20;;;;;;4939208;29;20027;-81
2022/08/08 02:11:49;;;;;;;2.72;1.80;;;21.60;50.30;;;;;;4939017;29;20027;-81
2022/08/08 02:14:41;;;;;;;3.08;1.65;;;21.60;50.20;;;;;;4923151;29;20615;-80
2022/08/08 02:17:44;;;;;;;1.67;1.40;;;21.60;50.40;;;;;;4938864;29;20539;-81
2022/08/08 02:20:34;;;;;;;2.08;1.77;;;21.60;50.40;;;;;;4938895;29;20479;-81
2022/08/08 02:23:19;;;;;;;1.50;1.40;;;21.50;50.40;;;;;;4939275;29;20050;-81
2022/08/08 02:26:00;;;;;;;1.83;1.40;;;21.50;50.50;;;;;;4956346;29;20070;-81
2022/08/08 02:29:00;;;;;;;1.52;1.40;;;21.50;50.60;;;;;;4939519;29;20054;-81
2022/08/08 02:32:05;;;;;;;1.63;1.40;;;21.40;50.60;;;;;;4938665;29;20031;-81
2022/08/08 02:34:59;;;;;;;1.60;1.50;;;21.40;50.60;;;;;;4936304;29;20043;-81
2022/08/08 02:37:53;;;;;;;2.00;1.50;;;21.40;50.70;;;;;;4923138;29;20047;-81
2022/08/08 02:40:34;;;;;;;1.80;1.40;;;21.30;50.70;;;;;;4922759;29;20027;-82
2022/08/08 02:43:36;;;;;;;1.77;1.45;;;21.30;50.70;;;;;;4938451;29;20039;-81
2022/08/08 02:46:02;;;;;;;1.48;1.20;;;21.30;50.80;;;;;;4938770;29;20046;-82
2022/08/08 02:49:18;;;;;;;1.52;1.33;;;21.30;50.70;;;;;;4938443;29;20027;-81
2022/08/08 02:52:22;;;;;;;1.95;1.45;;;21.20;50.90;;;;;;4901642;29;20039;-80
2022/08/08 02:55:19;;;;;;;2.47;1.40;;;21.20;50.90;;;;;;4938523;29;20130;-81
2022/08/08 02:58:07;;;;;;;2.22;1.40;;;21.20;51.00;;;;;;4938775;29;20357;-82
2022/08/08 03:00:51;;;;;;;1.52;1.42;;;21.10;50.90;;;;;;4955581;29;20090;-81
2022/08/08 03:03:44;;;;;;;1.90;1.50;;;21.10;51.10;;;;;;4938306;29;20027;-81
2022/08/08 03:06:25;;;;;;;3.25;1.80;;;21.10;51.00;;;;;;4916292;29;20181;-81
2022/08/08 03:09:28;;;;;;;2.17;1.50;;;21.00;51.10;;;;;;4938669;29;20035;-81
2022/08/08 03:12:22;;;;;;;1.67;1.50;;;21.00;51.20;;;;;;4955554;29;20027;-81
2022/08/08 03:15:05;;;;;;;1.85;1.60;;;21.00;51.20;;;;;;4955584;29;20035;-81
2022/08/08 03:18:01;;;;;;;1.70;1.38;;;21.00;51.30;;;;;;4919321;29;20082;-82
2022/08/08 03:20:44;;;;;;;1.45;1.35;;;20.90;51.40;;;;;;4915065;29;20102;-82
2022/08/08 03:23:10;;;;;;;2.63;1.70;;;20.90;51.40;;;;;;4935240;29;20500;-81
2022/08/08 03:25:37;;;;;;;2.40;1.70;;;20.90;51.30;;;;;;4888435;29;20040;-84
2022/08/08 03:28:14;;;;;;;1.95;1.55;;;20.90;51.40;;;;;;4935388;29;20067;-81
2022/08/08 03:30:43;;;;;;;2.10;1.48;;;20.80;51.40;;;;;;4919621;29;20024;-81
2022/08/08 03:33:18;;;;;;;1.45;1.27;;;20.80;51.40;;;;;;4941305;29;20055;-81
2022/08/08 03:35:49;;;;;;;1.75;1.60;;;20.80;51.40;;;;;;4942223;29;20515;-81
2022/08/08 03:38:19;;;;;;;1.58;1.20;;;20.80;51.50;;;;;;4936680;29;20035;-81
2022/08/08 03:40:50;;;;;;;2.53;1.63;;;20.80;51.50;;;;;;4935168;29;20032;-81
2022/08/08 03:43:16;;;;;;;1.80;1.50;;;20.80;51.60;;;;;;4938782;29;20032;-82
2022/08/08 03:45:43;;;;;;;2.03;1.58;;;20.80;51.60;;;;;;4924193;29;20035;-82
2022/08/08 03:48:12;;;;;;;1.70;1.60;;;20.80;51.70;;;;;;4936755;29;20115;-82
2022/08/08 03:50:46;;;;;;;1.77;1.52;;;20.70;51.70;;;;;;4935565;29;20039;-83
2022/08/08 03:53:15;;;;;;;2.47;1.67;;;20.70;51.80;;;;;;4938464;29;20082;-82
2022/08/08 03:55:44;;;;;;;1.67;1.50;;;20.70;51.90;;;;;;4938761;29;20027;-82
2022/08/08 03:58:20;;;;;;;1.52;1.33;;;20.70;51.90;;;;;;4923300;29;20043;-82
2022/08/08 04:00:56;;;;;;;1.65;1.55;;;20.70;52.00;;;;;;4937993;29;20031;-82
2022/08/08 04:03:33;;;;;;;1.70;1.60;;;20.60;52.00;;;;;;4938446;29;20123;-82
2022/08/08 04:06:05;;;;;;;2.20;1.40;;;20.60;52.00;;;;;;4938128;29;20039;-83
2022/08/08 04:08:34;;;;;;;2.38;1.80;;;20.60;52.00;;;;;;4937854;29;20042;-82
2022/08/08 04:11:02;;;;;;;3.03;1.90;;;20.60;52.00;;;;;;4937683;29;20093;-82
2022/08/08 04:13:28;;;;;;;2.70;1.52;;;20.50;52.10;;;;;;4922319;29;20039;-82
2022/08/08 04:15:59;;;;;;;2.55;1.80;;;20.60;52.10;;;;;;4944220;28;20062;-82
2022/08/08 04:18:24;;;;;;;1.98;1.63;;;20.50;52.10;;;;;;4926155;29;20542;-82
2022/08/08 04:20:51;;;;;;;1.77;1.45;;;20.50;52.20;;;;;;4941077;29;20031;-82
2022/08/08 04:23:16;;;;;;;1.80;1.65;;;20.50;52.20;;;;;;4941043;29;20031;-83
2022/08/08 04:25:43;;;;;;;2.95;1.60;;;20.40;52.20;;;;;;4924808;29;20055;-83
2022/08/08 04:28:10;;;;;;;1.52;1.42;;;20.40;52.20;;;;;;4925996;29;20085;-82
2022/08/08 04:30:36;;;;;;;1.55;1.45;;;20.40;52.30;;;;;;4925860;29;20372;-82
2022/08/08 04:33:02;;;;;;;1.73;1.55;;;20.40;52.40;;;;;;4941678;29;20027;-82
2022/08/08 04:35:30;;;;;;;1.80;1.40;;;20.30;52.30;;;;;;4910246;29;20035;-83
2022/08/08 04:37:56;;;;;;;2.00;1.40;;;20.30;53.00;;;;;;4925095;29;20030;-82
2022/08/08 04:40:29;;;;;;;2.75;1.50;;;20.30;52.40;;;;;;4942225;29;20039;-82
2022/08/08 04:42:57;;;;;;;1.52;1.42;;;20.30;52.40;;;;;;4941067;29;20035;-82
2022/08/08 04:45:25;;;;;;;1.50;1.40;;;20.20;52.50;;;;;;4941043;29;20038;-82
2022/08/08 04:47:52;;;;;;;1.50;1.40;;;20.30;52.60;;;;;;4925218;29;20487;-82
2022/08/08 04:50:18;;;;;;;1.90;1.60;;;20.20;52.60;;;;;;4925595;29;20078;-82
2022/08/08 04:52:43;;;;;;;1.67;1.40;;;20.20;52.70;;;;;;4940960;29;20484;-81
2022/08/08 04:55:13;;;;;;;2.20;1.50;;;20.20;52.70;;;;;;4940877;29;20051;-82
2022/08/08 04:57:39;;;;;;;1.73;1.45;;;20.20;52.70;;;;;;4924636;29;20031;-82
2022/08/08 05:00:08;;;;;;;1.60;1.50;;;20.20;52.80;;;;;;4924892;29;20027;-82
2022/08/08 05:02:34;;;;;;;1.88;1.48;;;20.10;52.80;;;;;;4939943;28;20040;-82
2022/08/08 05:05:00;;;;;;;2.00;1.60;;;20.20;52.90;;;;;;4924056;29;20043;-82
2022/08/08 05:07:29;;;;;;;2.83;1.60;;;20.10;52.90;;;;;;4940512;29;20047;-83
2022/08/08 05:09:55;;;;;;;1.98;1.40;;;20.10;52.90;;;;;;4924555;29;20023;-81
2022/08/08 05:12:21;;;;;;;2.25;1.70;;;20.10;52.90;;;;;;4940586;29;20047;-82
2022/08/08 05:14:49;;;;;;;1.77;1.45;;;20.10;53.00;;;;;;4925145;29;20413;-82
2022/08/08 05:17:14;;;;;;;1.90;1.50;;;20.10;53.00;;;;;;4943031;29;20059;-82
2022/08/08 05:19:40;;;;;;;1.60;1.48;;;20.00;52.90;;;;;;4936951;29;20031;-82
2022/08/08 05:22:07;;;;;;;1.88;1.67;;;20.00;53.00;;;;;;4935851;29;20039;-84
2022/08/08 05:24:35;;;;;;;1.77;1.30;;;20.00;53.00;;;;;;4941055;29;20043;-83
2022/08/08 05:27:01;;;;;;;1.30;1.20;;;20.00;53.10;;;;;;4924608;29;20030;-81
2022/08/08 05:29:27;;;;;;;1.58;1.40;;;20.00;53.00;;;;;;4924601;29;20035;-82
2022/08/08 05:31:53;;;;;;;3.28;1.50;;;20.00;53.10;;;;;;4940500;29;20365;-82
2022/08/08 05:34:29;;;;;;;1.75;1.35;;;20.00;53.10;;;;;;4923465;29;20082;-83
2022/08/08 05:36:57;;;;;;;1.83;1.40;;;20.00;53.10;;;;;;4939784;29;20427;-81
2022/08/08 05:39:24;;;;;;;1.60;1.35;;;20.00;53.10;;;;;;4924871;29;20367;-84
2022/08/08 05:41:51;;;;;;;1.42;1.30;;;19.90;53.10;;;;;;4939558;29;20039;-80
2022/08/08 05:44:25;;;;;;;1.38;1.27;;;19.90;53.10;;;;;;4923978;29;20068;-81
2022/08/08 05:46:52;;;;;;;1.95;1.48;;;19.90;53.20;;;;;;4939364;29;20031;-82
2022/08/08 05:49:19;;;;;;;1.90;1.60;;;19.90;53.20;;;;;;4939707;29;20035;-80
2022/08/08 05:51:46;;;;;;;2.13;1.60;;;19.90;53.20;;;;;;4923612;29;20062;-81
2022/08/08 05:54:12;;;;;;;1.95;1.40;;;19.90;53.30;;;;;;4938901;29;20071;-81
2022/08/08 05:56:41;;;;;;;1.58;1.20;;;19.90;53.30;;;;;;4939266;29;20122;-80
2022/08/08 05:59:15;;;;;;;2.15;1.38;;;19.90;53.40;;;;;;4939191;29;20029;-80
2022/08/08 06:01:42;;;;;;;1.67;1.38;;;19.90;53.40;;;;;;4923781;29;20023;-81
2022/08/08 06:04:10;;;;;;;1.45;1.33;;;19.90;53.40;;;;;;4923339;29;20058;-81
2022/08/08 06:06:42;;;;;;;1.63;1.40;;;19.90;53.40;;;;;;4939061;29;20143;-81
2022/08/08 06:09:10;;;;;;;1.45;1.35;;;19.90;53.50;;;;;;4939013;29;20118;-82
2022/08/08 06:11:36;;;;;;;1.45;1.17;;;19.90;53.40;;;;;;4923910;29;20062;-81
2022/08/08 06:14:05;;;;;;;1.25;1.13;;;19.90;53.40;;;;;;4923094;28;20118;-81
2022/08/08 06:16:35;;;;;;;1.33;1.20;;;19.90;53.50;;;;;;4938761;29;20159;-82
2022/08/08 06:19:24;;;;;;;1.50;1.30;;;19.90;53.60;;;;;;4934399;29;20512;-82
2022/08/08 06:21:52;;;;;;;1.92;1.30;;;19.90;53.50;;;;;;4922896;29;20472;-81
2022/08/08 06:24:23;;;;;;;1.35;1.10;;;19.90;53.50;;;;;;4939129;29;20045;-82
2022/08/08 06:27:05;;;;;;;1.30;1.20;;;19.90;53.50;;;;;;4938832;29;20027;-82
2022/08/08 06:29:52;;;;;;;1.40;1.20;;;19.90;53.60;;;;;;4923802;29;20031;-80
2022/08/08 06:32:22;;;;;;;1.38;1.10;;;19.90;53.70;;;;;;4938494;29;20041;-81
2022/08/08 06:34:53;;;;;;;1.75;1.10;;;19.90;53.50;;;;;;4939498;29;20479;-82
2022/08/08 06:37:26;;;;;;;1.20;1.10;;;19.90;53.60;;;;;;4938786;29;20027;-82
2022/08/08 06:40:03;;;;;;;1.20;1.10;;;19.90;53.70;;;;;;4922907;29;20127;-83
2022/08/08 06:42:34;;;;;;;1.10;1.10;;;19.90;53.70;;;;;;4923739;29;20050;-83
2022/08/08 06:45:06;;;;;;;1.10;1.05;;;19.90;53.70;;;;;;4922454;29;20064;-82
2022/08/08 06:47:34;;;;;;;1.77;1.40;;;20.00;54.40;;;;;;4938443;29;20035;-82
2022/08/08 06:50:01;;;;;;;1.67;1.20;;;20.00;53.70;;;;;;4922522;29;20035;-81
2022/08/08 06:52:27;;;;;;;1.35;1.20;;;20.00;53.80;;;;;;4922374;29;20468;-82
2022/08/08 06:54:57;;;;;;;1.90;0.90;;;20.00;53.80;;;;;;4923260;29;20062;-81
2022/08/08 06:57:25;;;;;;;1.05;0.90;;;20.00;53.90;;;;;;4923544;29;20112;-82
2022/08/08 06:59:52;;;;;;;1.20;1.10;;;20.00;53.80;;;;;;4923070;29;20468;-82
2022/08/08 07:02:24;;;;;;;0.90;0.90;;;20.00;53.90;;;;;;4939804;29;20050;-81
2022/08/08 07:04:55;;;;;;;1.25;1.10;;;20.10;54.00;;;;;;4923104;29;20035;-82
2022/08/08 07:07:37;;;;;;;1.10;1.00;;;20.10;54.00;;;;;;4938878;29;20034;-82
2022/08/08 07:10:06;;;;;;;1.80;1.02;;;20.10;54.10;;;;;;4938395;29;20059;-82
2022/08/08 07:12:45;;;;;;;1.20;1.05;;;20.10;54.00;;;;;;4923270;29;20026;-81
2022/08/08 07:15:15;;;;;;;2.63;1.20;;;20.10;54.20;;;;;;4939021;28;20039;-81
2022/08/08 07:17:50;;;;;;;1.10;1.05;;;20.10;54.10;;;;;;4938979;29;20032;-83
2022/08/08 07:20:25;;;;;;;1.25;1.10;;;20.20;54.20;;;;;;4938088;29;20039;-82
2022/08/08 07:23:13;;;;;;;1.52;0.90;;;20.20;54.20;;;;;;4921750;29;20031;-83
2022/08/08 07:25:41;;;;;;;1.20;1.05;;;20.20;54.30;;;;;;4938153;28;20039;-83
2022/08/08 07:28:10;;;;;;;1.95;1.20;;;20.20;54.20;;;;;;4925837;29;20031;-83
2022/08/08 07:30:38;;;;;;;1.08;1.08;;;20.20;54.30;;;;;;4942373;29;20028;-83
2022/08/08 07:33:05;;;;;;;2.42;1.10;;;20.20;54.30;;;;;;4910761;29;20042;-83
2022/08/08 07:35:35;;;;;;;1.10;1.10;;;20.20;54.40;;;;;;4942110;29;20507;-82
2022/08/08 07:38:01;;;;;;;1.10;1.00;;;20.20;54.40;;;;;;4926093;29;20035;-82
2022/08/08 07:40:42;;;;;;;1.48;1.13;;;20.30;54.40;;;;;;4928516;29;20062;-82
2022/08/08 07:43:11;;;;;;;1.20;1.10;;;20.30;54.50;;;;;;4926041;29;20065;-82
2022/08/08 07:45:47;;;;;;;1.15;0.90;;;20.30;54.50;;;;;;4927254;29;20094;-82
2022/08/08 07:48:13;;;;;;;2.00;1.17;;;20.30;54.40;;;;;;4941618;29;20031;-81
2022/08/08 07:50:39;;;;;;;1.27;1.17;;;20.40;54.50;;;;;;4941679;29;20452;-82
2022/08/08 07:53:25;;;;;;;1.27;1.17;;;20.40;54.40;;;;;;4926150;29;20384;-82
2022/08/08 07:55:55;;;;;;;1.30;1.10;;;20.40;54.50;;;;;;4941855;29;20027;-83
2022/08/08 07:58:31;;;;;;;1.20;1.10;;;20.40;54.50;;;;;;4958787;29;20034;-83
2022/08/08 08:01:29;;;;;;;1.25;1.15;;;20.50;54.60;;;;;;4942138;29;20035;-82
2022/08/08 08:04:13;;;;;;;1.20;1.00;;;20.50;54.70;;;;;;4940221;29;20054;-82
2022/08/08 08:06:40;;;;;;;1.27;1.10;;;20.50;54.60;;;;;;4941305;29;20039;-82
2022/08/08 08:09:13;;;;;;;1.73;1.20;;;20.60;54.50;;;;;;4941598;29;20108;-82
2022/08/08 08:11:44;;;;;;;1.08;1.08;;;20.60;54.40;;;;;;4925394;29;20043;-83
2022/08/08 08:14:16;;;;;;;1.00;1.00;;;20.70;54.30;;;;;;4926005;29;20042;-82
2022/08/08 08:16:46;;;;;;;1.70;1.10;;;20.70;54.20;;;;;;4941269;29;20054;-83
2022/08/08 08:19:13;;;;;;;1.13;1.10;;;20.80;54.20;;;;;;4925437;29;20031;-83
2022/08/08 08:21:44;;;;;;;1.65;1.10;;;20.80;54.10;;;;;;4941453;29;20046;-85
2022/08/08 08:24:16;;;;;;;1.20;1.10;;;20.90;54.00;;;;;;4926728;29;20043;-80
2022/08/08 08:26:42;;;;;;;1.73;1.20;;;21.00;53.90;;;;;;4940819;29;20043;-83
2022/08/08 08:29:08;;;;;;;1.45;1.10;;;21.00;53.80;;;;;;4925143;29;20036;-83
2022/08/08 08:31:37;;;;;;;1.92;1.20;;;21.10;53.80;;;;;;4925242;29;20472;-83
2022/08/08 08:34:03;;;;;;;1.90;1.20;;;21.10;53.70;;;;;;4909434;29;20037;-83
2022/08/08 08:36:28;;;;;;;1.20;1.10;;;21.20;53.70;;;;;;4940949;29;20118;-83
2022/08/08 08:38:56;;;;;;;1.77;1.17;;;21.30;53.70;;;;;;4940560;29;20039;-83
2022/08/08 08:41:33;;;;;;;1.10;1.00;;;21.30;53.60;;;;;;4940841;29;20027;-82
2022/08/08 08:44:01;;;;;;;1.38;0.95;;;21.40;53.50;;;;;;4924904;29;20043;-83
2022/08/08 08:46:29;;;;;;;1.65;1.20;;;21.50;53.40;;;;;;4925030;29;20028;-83
2022/08/08 08:48:56;;;;;;;1.10;1.00;;;21.60;53.40;;;;;;4924645;29;20043;-82
2022/08/08 08:51:26;;;;;;;1.35;1.00;;;21.60;53.20;;;;;;4941111;29;20034;-83
2022/08/08 08:53:55;;;;;;;1.40;1.00;;;21.70;53.10;;;;;;4941890;29;20027;-82
2022/08/08 08:56:27;;;;;;;1.20;1.10;;;21.80;53.00;;;;;;4942276;29;20380;-82
2022/08/08 08:59:00;;;;;;;1.05;0.95;;;21.90;53.00;;;;;;4953222;29;20448;-83
2022/08/08 09:01:36;;;;;;;2.15;0.95;;;22.00;52.90;;;;;;4941857;29;20065;-83
2022/08/08 09:04:15;;;;;;;1.08;0.98;;;22.00;52.90;;;;;;4940715;29;20098;-83
2022/08/08 09:06:42;;;;;;;0.90;0.90;;;22.10;52.80;;;;;;4940554;29;20043;-82
2022/08/08 09:09:15;;;;;;;2.08;1.30;;;22.20;52.70;;;;;;4925423;29;20023;-83
2022/08/08 09:11:44;;;;;;;0.80;0.80;;;22.30;52.70;;;;;;4924116;29;20131;-82
2022/08/08 09:14:10;;;;;;;1.38;0.90;;;22.40;52.60;;;;;;4924470;29;20392;-82
2022/08/08 09:16:37;;;;;;;1.40;1.00;;;22.50;52.60;;;;;;4924686;29;20065;-83
2022/08/08 09:19:04;;;;;;;1.40;0.90;;;22.50;52.50;;;;;;4939661;29;20131;-83
2022/08/08 09:21:32;;;;;;;1.65;1.00;;;22.60;52.40;;;;;;4924396;29;20023;-82
2022/08/08 09:23:59;;;;;;;0.80;0.80;;;22.60;52.30;;;;;;4940274;29;20379;-83
2022/08/08 09:26:35;;;;;;;1.20;1.00;;;22.70;52.30;;;;;;4924241;29;20415;-83
2022/08/08 09:29:05;;;;;;;1.00;1.00;;;22.90;52.30;;;;;;4940531;29;20435;-84
2022/08/08 09:32:02;;;;;;;1.52;0.90;;;22.90;52.20;;;;;;4940740;29;20035;-86
2022/08/08 09:34:34;;;;;;;0.75;0.75;;;22.90;52.20;;;;;;4941001;29;20035;-85
2022/08/08 09:37:10;;;;;;;1.10;1.00;;;23.00;52.10;;;;;;4925763;29;20071;-84
2022/08/08 09:40:05;;;;;;;0.85;0.85;;;23.00;52.10;;;;;;4941116;29;20417;-85
2022/08/08 09:42:40;;;;;;;0.98;0.90;;;23.10;52.10;;;;;;4940566;29;20127;-88
2022/08/08 09:45:07;;;;;;;0.80;0.80;;;23.20;52.00;;;;;;4925288;29;20063;-86
2022/08/08 09:47:35;;;;;;;0.82;0.80;;;23.30;52.00;;;;;;4957650;29;20051;-85
2022/08/08 09:50:14;;;;;;;1.63;1.00;;;23.30;52.00;;;;;;4924268;29;20035;-87
2022/08/08 09:52:45;;;;;;;0.80;0.80;;;23.30;51.90;;;;;;4940369;29;20031;-86
2022/08/08 09:55:10;;;;;;;0.73;0.73;;;23.40;51.90;;;;;;4957751;29;20053;-86
2022/08/08 09:57:39;;;;;;;1.13;0.80;;;23.50;51.80;;;;;;4940801;29;20114;-87
2022/08/08 10:00:08;;;;;;;0.93;0.88;;;23.50;51.80;;;;;;4940762;29;20035;-86
2022/08/08 10:02:42;;;;;;;0.70;0.70;;;23.60;51.80;;;;;;4957923;29;20031;-85
2022/08/08 10:05:11;;;;;;;0.90;0.80;;;23.60;51.70;;;;;;4957610;29;20131;-85
2022/08/08 10:08:03;;;;;;;0.75;0.75;;;23.70;51.70;;;;;;4924344;29;20030;-85
2022/08/08 10:10:42;;;;;;;1.10;0.75;;;23.80;51.70;;;;;;4939790;29;20052;-84
2022/08/08 10:13:19;;;;;;;0.88;0.80;;;23.80;51.70;;;;;;4940790;29;20067;-84
2022/08/08 10:15:50;;;;;;;0.77;0.77;;;23.90;51.60;;;;;;4957447;28;20081;-85
2022/08/08 10:18:24;;;;;;;0.80;0.80;;;24.00;51.60;;;;;;4943839;29;20027;-85
2022/08/08 10:20:53;;;;;;;1.33;0.80;;;24.00;51.50;;;;;;4933475;29;20091;-85
2022/08/08 10:23:44;;;;;;;1.23;0.80;;;24.10;51.50;;;;;;4928015;28;20027;-87
2022/08/08 10:26:25;;;;;;;0.70;0.70;;;24.10;51.50;;;;;;4962565;29;20114;-86
2022/08/08 10:29:11;;;;;;;0.90;0.80;;;24.20;51.40;;;;;;4947710;29;20031;-85
2022/08/08 10:34:27;;;;;;;0.80;0.80;;;24.30;51.30;;;;;;4956946;29;20106;-82
2022/08/08 10:36:55;;;;;;;0.80;0.75;;;24.40;51.30;;;;;;4939565;29;20440;-83
2022/08/08 10:39:26;;;;;;;0.80;0.73;;;24.40;51.30;;;;;;4956029;29;20031;-84
2022/08/08 10:42:00;;;;;;;0.95;0.82;;;24.40;51.30;;;;;;4939171;29;20036;-85
2022/08/08 10:44:36;;;;;;;1.48;0.70;;;24.50;51.30;;;;;;4939178;29;20024;-86
2022/08/08 10:47:12;;;;;;;0.57;0.57;;;24.50;51.20;;;;;;4939355;29;20070;-85
2022/08/08 10:49:49;;;;;;;0.88;0.82;;;24.60;51.30;;;;;;4956276;29;20059;-84
2022/08/08 10:52:31;;;;;;;0.80;0.80;;;24.60;51.20;;;;;;4956160;29;20058;-86
2022/08/08 10:55:17;;;;;;;0.60;0.60;;;24.70;51.30;;;;;;4923990;29;20031;-84
2022/08/08 10:57:49;;;;;;;0.82;0.70;;;24.80;51.30;;;;;;4939640;29;20041;-84
2022/08/08 11:00:21;;;;;;;0.80;0.80;;;24.80;51.10;;;;;;4939094;28;20031;-85
2022/08/08 11:02:47;;;;;;;1.08;0.90;;;24.90;51.20;;;;;;4939332;29;20114;-84
2022/08/08 11:05:12;;;;;;;0.80;0.80;;;25.00;51.10;;;;;;4923384;29;20100;-84
2022/08/08 11:07:41;;;;;;;0.63;0.63;;;25.00;51.00;;;;;;4923949;29;20187;-84
2022/08/08 11:10:09;;;;;;;0.65;0.65;;;25.10;51.00;;;;;;4922943;29;20459;-84
2022/08/08 11:12:53;;;;;;;1.00;0.80;;;25.10;51.00;;;;;;4939295;29;20121;-85
2022/08/08 11:15:22;;;;;;;0.98;0.88;;;25.10;51.00;;;;;;4938897;28;20035;-85
2022/08/08 11:17:48;;;;;;;1.15;0.90;;;25.20;50.90;;;;;;4956162;29;20035;-85
2022/08/08 11:20:22;;;;;;;1.00;0.70;;;25.20;50.80;;;;;;4938925;29;20031;-86
2022/08/08 11:22:59;;;;;;;0.60;0.60;;;25.20;50.80;;;;;;4938937;29;20041;-85
2022/08/08 11:25:28;;;;;;;0.80;0.80;;;25.30;50.90;;;;;;4938648;29;20074;-86
2022/08/08 11:27:56;;;;;;;1.08;0.90;;;25.30;50.80;;;;;;4939099;29;20031;-86
2022/08/08 11:30:23;;;;;;;0.60;0.60;;;25.40;50.90;;;;;;4956338;29;20028;-87
2022/08/08 11:32:52;;;;;;;1.13;0.85;;;25.40;50.90;;;;;;4923411;29;20027;-87
2022/08/08 11:35:20;;;;;;;1.20;0.75;;;25.40;50.80;;;;;;4939403;29;20051;-88
2022/08/08 11:37:46;;;;;;;0.70;0.70;;;25.50;50.80;;;;;;4939055;29;20032;-84
2022/08/08 11:40:13;;;;;;;0.70;0.70;;;25.50;50.70;;;;;;4922766;29;20110;-84
2022/08/08 11:42:44;;;;;;;0.70;0.70;;;25.60;50.70;;;;;;4923024;29;20425;-86
2022/08/08 11:45:11;;;;;;;0.70;0.70;;;25.60;50.60;;;;;;4938682;29;20496;-85
2022/08/08 11:47:38;;;;;;;0.80;0.80;;;25.60;50.50;;;;;;4953391;29;20035;-89
2022/08/08 11:50:13;;;;;;;0.70;0.70;;;25.70;50.50;;;;;;4952634;29;20223;-90
2022/08/08 11:52:40;;;;;;;1.25;0.75;;;25.70;50.50;;;;;;4945809;28;20079;-85
2022/08/08 11:55:25;;;;;;;0.93;0.80;;;25.70;50.40;;;;;;4940559;29;20523;-85
2022/08/08 11:58:08;;;;;;;0.70;0.70;;;25.70;50.40;;;;;;4924289;29;20039;-85
2022/08/08 12:00:44;;;;;;;1.05;0.70;;;25.70;50.30;;;;;;4938671;29;20070;-85
2022/08/08 12:03:22;;;;;;;0.85;0.60;;;25.80;50.30;;;;;;4938931;29;20055;-84
2022/08/08 12:05:50;;;;;;;0.70;0.70;;;25.80;50.40;;;;;;4941846;29;20073;-85
2022/08/08 12:08:28;;;;;;;0.60;0.60;;;25.90;50.50;;;;;;4940219;29;20053;-86
2022/08/08 12:11:02;;;;;;;0.60;0.60;;;25.90;50.60;;;;;;4939692;29;20063;-86
2022/08/08 12:13:29;;;;;;;0.52;0.52;;;25.90;50.50;;;;;;4925288;29;20023;-87
2022/08/08 12:16:09;;;;;;;0.70;0.70;;;26.00;50.40;;;;;;4926195;29;20063;-88
2022/08/08 12:18:51;;;;;;;0.75;0.70;;;26.00;50.40;;;;;;4942769;29;20464;-87
2022/08/08 12:21:29;;;;;;;0.63;0.63;;;26.00;50.40;;;;;;4942549;29;20369;-88
2022/08/08 12:24:12;;;;;;;0.70;0.60;;;26.10;50.30;;;;;;4959293;29;20107;-86
2022/08/08 12:26:49;;;;;;;0.55;0.55;;;26.10;50.20;;;;;;4942377;29;20039;-89
2022/08/08 12:29:20;;;;;;;1.52;0.70;;;26.10;50.20;;;;;;4926156;29;20125;-86
2022/08/08 12:31:46;;;;;;;0.70;0.65;;;26.10;50.10;;;;;;4942065;29;20039;-86
2022/08/08 12:34:12;;;;;;;0.98;0.80;;;26.10;50.10;;;;;;4941736;29;20106;-84
2022/08/08 12:36:40;;;;;;;0.73;0.70;;;26.10;50.10;;;;;;4942378;29;20042;-89
2022/08/08 12:39:07;;;;;;;1.05;0.70;;;26.20;50.20;;;;;;4928520;29;20040;-87
2022/08/08 12:41:35;;;;;;;1.15;0.80;;;26.20;50.20;;;;;;4932435;29;20046;-84
2022/08/08 12:44:13;;;;;;;0.50;0.50;;;26.30;50.30;;;;;;4958204;29;20019;-83
2022/08/08 12:46:39;;;;;;;0.65;0.63;;;26.30;50.40;;;;;;4926459;29;20043;-84
2022/08/08 12:49:05;;;;;;;1.00;0.70;;;26.30;50.20;;;;;;4941562;29;20129;-85
2022/08/08 12:51:39;;;;;;;1.08;0.75;;;26.30;50.10;;;;;;4941997;29;20039;-86
2022/08/08 12:54:08;;;;;;;0.65;0.60;;;26.30;50.10;;;;;;4925861;29;20101;-86
2022/08/08 12:56:38;;;;;;;0.60;0.60;;;26.40;50.10;;;;;;4926351;29;20465;-85
2022/08/08 12:59:18;;;;;;;0.70;0.70;;;26.40;50.00;;;;;;4958550;29;20042;-84
2022/08/08 13:01:56;;;;;;;0.60;0.60;;;26.40;50.00;;;;;;4941427;29;20128;-85
2022/08/08 13:04:24;;;;;;;0.73;0.60;;;26.40;49.90;;;;;;4941459;29;20031;-85
2022/08/08 13:06:59;;;;;;;0.60;0.60;;;26.50;49.90;;;;;;4925623;29;20041;-84
2022/08/08 13:09:38;;;;;;;0.73;0.70;;;26.40;49.80;;;;;;4941392;29;20042;-85
2022/08/08 13:12:15;;;;;;;0.82;0.70;;;26.50;49.80;;;;;;4941140;29;20066;-84
2022/08/08 13:14:49;;;;;;;1.02;0.68;;;26.50;49.70;;;;;;4929745;29;20074;-84
2022/08/08 13:17:17;;;;;;;0.82;0.77;;;26.50;49.70;;;;;;4964536;29;20055;-84
2022/08/08 13:19:45;;;;;;;0.63;0.60;;;26.50;49.60;;;;;;4938124;29;20029;-86
2022/08/08 13:22:15;;;;;;;0.60;0.60;;;26.50;49.60;;;;;;4941384;29;20027;-88
2022/08/08 13:24:42;;;;;;;0.70;0.70;;;26.50;49.60;;;;;;4957365;28;20042;-89
2022/08/08 13:27:29;;;;;;;0.95;0.70;;;26.60;49.60;;;;;;4957878;29;20038;-87
2022/08/08 13:29:57;;;;;;;0.63;0.63;;;26.60;49.60;;;;;;4958817;29;20036;-85
2022/08/08 13:32:26;;;;;;;0.70;0.70;;;26.60;49.40;;;;;;4927347;29;20058;-88